Time;durP1;ratioP1;P1;durP2;ratioP2;P2;SDS_P1;SDS_P2;PMS_P1;PMS_P2;Temp;Humidity;BMP_temperature;BMP_pressure;BME280_temperature;BME280_humidity;BME280_pressure;Samples;Min_cycle;Max_cycle;Signal;HPM_P1;HPM_P2
2022/03/16 00:01:03;;;;;;;46.53;17.80;;;9.80;40.70;;;;;;5003546;28;20479;-59
2022/03/16 00:03:30;;;;;;;52.77;16.00;;;9.80;40.60;;;;;;5007485;28;20471;-59
2022/03/16 00:05:57;;;;;;;45.23;16.20;;;9.80;40.80;;;;;;5007612;28;20464;-61
2022/03/16 00:08:27;;;;;;;49.53;15.37;;;9.80;40.60;;;;;;5003062;28;20694;-59
2022/03/16 00:10:54;;;;;;;43.97;14.93;;;9.80;40.30;;;;;;5007537;28;20468;-59
2022/03/16 00:13:21;;;;;;;44.10;15.13;;;9.80;40.20;;;;;;5003561;28;20476;-59
2022/03/16 00:15:49;;;;;;;45.40;15.47;;;9.80;40.10;;;;;;5005597;28;20465;-60
2022/03/16 00:18:16;;;;;;;44.57;16.53;;;9.80;40.10;;;;;;5001369;28;20485;-59
2022/03/16 00:20:42;;;;;;;42.40;14.73;;;9.90;40.00;;;;;;5007539;28;20464;-59
2022/03/16 00:23:09;;;;;;;45.37;17.43;;;9.80;39.80;;;;;;5004105;28;20471;-60
2022/03/16 00:25:36;;;;;;;42.40;15.33;;;9.90;40.40;;;;;;5002043;28;20468;-60
2022/03/16 00:28:03;;;;;;;49.80;17.00;;;9.90;40.70;;;;;;5007717;28;21008;-59
2022/03/16 00:30:29;;;;;;;45.30;16.67;;;9.90;39.90;;;;;;5006255;28;20472;-59
2022/03/16 00:32:57;;;;;;;45.87;17.37;;;9.90;39.70;;;;;;5004254;28;20468;-60
2022/03/16 00:35:24;;;;;;;44.30;16.47;;;9.90;39.70;;;;;;5005594;28;21246;-60
2022/03/16 00:37:51;;;;;;;49.10;17.90;;;9.90;39.80;;;;;;5006766;28;20499;-59
2022/03/16 00:40:18;;;;;;;48.17;19.13;;;9.90;39.50;;;;;;5004076;28;20473;-60
2022/03/16 00:42:44;;;;;;;49.03;19.03;;;10.00;39.30;;;;;;5005958;28;20470;-58
2022/03/16 00:45:11;;;;;;;48.13;19.93;;;9.90;39.40;;;;;;5004909;28;20470;-59
2022/03/16 00:47:38;;;;;;;46.80;17.90;;;9.90;39.30;;;;;;5005990;28;20508;-59
2022/03/16 00:50:07;;;;;;;46.50;19.03;;;9.90;39.30;;;;;;5007050;28;20471;-57
2022/03/16 00:52:34;;;;;;;47.80;18.50;;;9.90;39.40;;;;;;5006287;28;20993;-60
2022/03/16 00:55:01;;;;;;;45.90;17.97;;;9.90;39.10;;;;;;5003673;28;20989;-60
2022/03/16 00:57:27;;;;;;;45.07;17.80;;;10.00;39.10;;;;;;5005459;28;20502;-59
2022/03/16 00:59:54;;;;;;;49.00;17.50;;;9.90;39.20;;;;;;5007995;28;20490;-60
2022/03/16 01:02:21;;;;;;;47.97;20.30;;;10.00;39.30;;;;;;4999177;28;20881;-60
2022/03/16 01:04:48;;;;;;;44.90;16.87;;;10.00;39.00;;;;;;5004091;28;20464;-58
2022/03/16 01:07:16;;;;;;;51.73;20.00;;;9.90;38.90;;;;;;5004005;28;20511;-59
2022/03/16 01:09:43;;;;;;;47.97;19.30;;;9.90;39.00;;;;;;5000438;28;21131;-58
2022/03/16 01:12:10;;;;;;;54.60;20.20;;;9.90;39.00;;;;;;5002265;28;20856;-57
2022/03/16 01:14:38;;;;;;;50.03;20.17;;;9.90;39.10;;;;;;5002275;28;20486;-60
2022/03/16 01:17:05;;;;;;;50.97;21.37;;;9.90;39.10;;;;;;5002718;28;20492;-57
2022/03/16 01:19:34;;;;;;;55.63;21.87;;;9.90;39.20;;;;;;5004613;28;20460;-58
2022/03/16 01:22:01;;;;;;;52.63;23.37;;;9.90;39.00;;;;;;5000255;28;20475;-60
2022/03/16 01:24:29;;;;;;;53.63;24.97;;;9.90;39.20;;;;;;4998797;28;20464;-58
2022/03/16 01:26:56;;;;;;;54.57;23.73;;;9.90;39.30;;;;;;4997466;28;20483;-60
2022/03/16 01:29:24;;;;;;;51.77;22.10;;;9.90;39.30;;;;;;4999116;28;20919;-59
2022/03/16 01:31:51;;;;;;;54.50;23.37;;;9.90;39.20;;;;;;5001483;28;20530;-61
2022/03/16 01:34:18;;;;;;;57.00;24.63;;;9.90;39.40;;;;;;5005308;28;20809;-61
2022/03/16 01:36:45;;;;;;;56.07;24.00;;;9.90;39.50;;;;;;4998287;28;20516;-60
2022/03/16 01:39:11;;;;;;;54.80;25.07;;;10.00;39.60;;;;;;5004986;28;20460;-60
2022/03/16 01:41:39;;;;;;;60.57;27.23;;;9.90;39.70;;;;;;4999434;28;21201;-60
2022/03/16 01:44:06;;;;;;;59.33;25.63;;;10.00;39.80;;;;;;5005003;28;20459;-60
2022/03/16 01:46:33;;;;;;;58.80;25.67;;;10.00;39.70;;;;;;5002776;28;20456;-60
2022/03/16 01:49:00;;;;;;;58.80;26.70;;;10.00;39.50;;;;;;5006318;28;20463;-60
2022/03/16 01:51:27;;;;;;;60.67;25.10;;;10.00;39.80;;;;;;5001774;28;20946;-58
2022/03/16 01:53:54;;;;;;;56.37;25.20;;;10.00;39.80;;;;;;5001747;28;20471;-60
2022/03/16 01:56:20;;;;;;;65.00;27.13;;;10.00;39.90;;;;;;4999839;28;20503;-59
2022/03/16 01:58:48;;;;;;;61.07;26.17;;;10.00;40.50;;;;;;5005033;28;20498;-60
2022/03/16 02:01:16;;;;;;;60.60;26.40;;;10.00;40.40;;;;;;5001518;28;20480;-59
2022/03/16 02:03:43;;;;;;;58.03;26.00;;;10.00;40.50;;;;;;5004176;28;20470;-58
2022/03/16 02:06:11;;;;;;;61.77;26.67;;;10.00;40.60;;;;;;5004390;28;20462;-60
2022/03/16 02:08:38;;;;;;;59.63;27.03;;;10.00;40.60;;;;;;5000945;28;20478;-59
2022/03/16 02:11:05;;;;;;;56.87;25.90;;;10.00;40.70;;;;;;5006304;28;20451;-59
2022/03/16 02:13:34;;;;;;;57.83;26.20;;;9.90;40.40;;;;;;5001884;28;20468;-61
2022/03/16 02:16:03;;;;;;;64.77;27.30;;;9.90;40.30;;;;;;5001711;28;20933;-61
2022/03/16 02:18:29;;;;;;;62.20;24.23;;;9.90;40.60;;;;;;5002348;28;20502;-59
2022/03/16 02:20:57;;;;;;;64.70;27.37;;;9.90;40.90;;;;;;4998185;28;20464;-59
2022/03/16 02:23:25;;;;;;;60.83;26.27;;;9.90;41.30;;;;;;4998883;28;20460;-59
2022/03/16 02:25:53;;;;;;;65.17;27.80;;;9.90;41.10;;;;;;5000530;28;20468;-60
2022/03/16 02:28:22;;;;;;;62.63;27.63;;;9.90;40.90;;;;;;5005290;28;20483;-60
2022/03/16 02:30:49;;;;;;;72.93;28.50;;;9.90;40.90;;;;;;5001857;28;20535;-59
2022/03/16 02:33:16;;;;;;;62.77;28.43;;;9.80;41.00;;;;;;5003290;28;20506;-59
2022/03/16 02:35:43;;;;;;;67.23;28.17;;;9.80;41.00;;;;;;5005018;28;20464;-59
2022/03/16 02:38:10;;;;;;;68.70;27.90;;;9.80;41.10;;;;;;4999732;28;20860;-60
2022/03/16 02:40:38;;;;;;;67.77;29.47;;;9.80;41.20;;;;;;5001367;28;20467;-60
2022/03/16 02:43:05;;;;;;;69.00;28.90;;;9.80;41.80;;;;;;5006347;28;20463;-60
2022/03/16 02:45:32;;;;;;;68.07;30.60;;;9.80;41.70;;;;;;4999441;28;20468;-60
2022/03/16 02:47:59;;;;;;;66.60;28.90;;;9.70;42.00;;;;;;5004312;28;20483;-59
2022/03/16 02:50:26;;;;;;;66.83;28.23;;;9.70;42.30;;;;;;5002023;28;20472;-57
2022/03/16 02:52:53;;;;;;;70.87;28.67;;;9.70;42.40;;;;;;5004681;28;20464;-59
2022/03/16 02:55:20;;;;;;;70.83;29.60;;;9.70;42.40;;;;;;5003176;28;20475;-60
2022/03/16 02:57:48;;;;;;;64.20;28.17;;;9.80;42.20;;;;;;4999572;28;20492;-60
2022/03/16 03:00:15;;;;;;;67.87;30.03;;;9.80;42.20;;;;;;5005947;28;20490;-60
2022/03/16 03:02:42;;;;;;;73.63;29.50;;;9.80;42.00;;;;;;5006000;28;20460;-59
2022/03/16 03:05:09;;;;;;;70.97;29.30;;;9.70;41.80;;;;;;5004192;28;20489;-59
2022/03/16 03:07:36;;;;;;;67.50;28.23;;;9.70;41.80;;;;;;5005882;28;20479;-59
2022/03/16 03:10:03;;;;;;;66.20;29.80;;;9.80;42.30;;;;;;5006171;28;21142;-59
2022/03/16 03:12:34;;;;;;;64.30;27.97;;;9.80;42.40;;;;;;5006673;28;20720;-59
2022/03/16 03:15:04;;;;;;;69.07;30.27;;;9.80;42.60;;;;;;5004561;28;20459;-60
2022/03/16 03:17:30;;;;;;;67.27;29.47;;;9.80;42.10;;;;;;5007130;28;21107;-59
2022/03/16 03:19:57;;;;;;;70.50;30.57;;;9.80;42.30;;;;;;5006012;28;21003;-60
2022/03/16 03:22:27;;;;;;;66.87;29.10;;;9.80;42.30;;;;;;5007830;28;20992;-58
2022/03/16 03:24:55;;;;;;;70.20;31.60;;;9.80;42.30;;;;;;5003675;28;20545;-59
2022/03/16 03:27:21;;;;;;;69.73;29.20;;;9.90;42.50;;;;;;5007337;28;20993;-60
2022/03/16 03:29:48;;;;;;;73.90;30.27;;;9.90;42.50;;;;;;5006272;28;20464;-58
2022/03/16 03:32:17;;;;;;;69.47;30.50;;;9.90;42.70;;;;;;5003942;28;20472;-59
2022/03/16 03:34:46;;;;;;;74.53;31.00;;;9.90;42.80;;;;;;5005251;28;20468;-59
2022/03/16 03:37:13;;;;;;;65.33;29.37;;;9.90;42.90;;;;;;5007634;28;20487;-61
2022/03/16 03:39:40;;;;;;;66.60;30.70;;;9.90;42.60;;;;;;5005884;28;20465;-61
2022/03/16 03:42:08;;;;;;;68.93;30.33;;;10.00;42.60;;;;;;4998842;28;20456;-60
2022/03/16 03:44:37;;;;;;;68.40;31.80;;;9.90;42.80;;;;;;5005154;28;20484;-61
2022/03/16 03:47:05;;;;;;;63.57;28.30;;;9.90;42.90;;;;;;5007652;28;20488;-60
2022/03/16 03:49:34;;;;;;;62.60;28.50;;;10.00;42.70;;;;;;5005960;28;20464;-61
2022/03/16 03:52:01;;;;;;;64.80;29.80;;;10.00;42.70;;;;;;5009190;28;20475;-59
2022/03/16 03:54:28;;;;;;;64.23;28.67;;;10.00;42.70;;;;;;5006152;28;20482;-59
2022/03/16 03:56:55;;;;;;;68.17;30.10;;;10.00;42.40;;;;;;5005025;28;20494;-60
2022/03/16 03:59:23;;;;;;;65.63;28.90;;;10.00;42.50;;;;;;5008490;28;20463;-59
2022/03/16 04:01:50;;;;;;;70.00;29.63;;;10.00;42.40;;;;;;5005365;28;20486;-60
2022/03/16 04:04:17;;;;;;;70.03;32.63;;;9.90;42.40;;;;;;5005809;28;20464;-60
2022/03/16 04:06:45;;;;;;;80.83;27.77;;;9.90;42.50;;;;;;5000714;28;20464;-60
2022/03/16 04:09:12;;;;;;;70.20;28.20;;;9.90;42.80;;;;;;5006239;28;20466;-61
2022/03/16 04:11:40;;;;;;;71.77;29.47;;;9.90;43.20;;;;;;5005335;28;20460;-60
2022/03/16 04:14:07;;;;;;;66.63;30.10;;;9.80;42.90;;;;;;5005269;28;20460;-61
2022/03/16 04:16:34;;;;;;;64.10;27.40;;;9.80;42.90;;;;;;5001868;28;20456;-60
2022/03/16 04:19:00;;;;;;;87.00;32.13;;;9.80;43.10;;;;;;5006984;28;20488;-59
2022/03/16 04:21:27;;;;;;;78.77;33.03;;;9.70;43.30;;;;;;5006701;28;20464;-59
2022/03/16 04:23:55;;;;;;;74.87;31.90;;;9.70;43.30;;;;;;5005762;28;20460;-60
2022/03/16 04:26:22;;;;;;;76.53;33.00;;;9.80;43.40;;;;;;5004249;28;20498;-60
2022/03/16 04:28:49;;;;;;;64.50;28.30;;;9.80;43.30;;;;;;5005555;28;20500;-58
2022/03/16 04:31:16;;;;;;;72.53;29.60;;;9.70;43.80;;;;;;5006307;28;21004;-59
2022/03/16 04:33:43;;;;;;;74.60;28.50;;;9.70;44.10;;;;;;5005986;28;20853;-59
2022/03/16 04:36:09;;;;;;;82.00;32.07;;;9.70;44.40;;;;;;5007390;28;20837;-59
2022/03/16 04:38:36;;;;;;;89.20;33.37;;;9.60;44.50;;;;;;4998131;28;21028;-59
2022/03/16 04:41:05;;;;;;;108.23;35.90;;;9.60;44.60;;;;;;5005448;28;20479;-60
2022/03/16 04:43:31;;;;;;;142.73;37.20;;;9.60;45.10;;;;;;5005721;28;20463;-60
2022/03/16 04:45:58;;;;;;;104.67;39.43;;;9.60;45.40;;;;;;5003545;28;20819;-60
2022/03/16 04:48:25;;;;;;;115.80;34.97;;;9.60;45.70;;;;;;5002516;28;20480;-57
2022/03/16 04:50:52;;;;;;;106.53;35.20;;;9.60;45.90;;;;;;5006701;28;20545;-60
2022/03/16 04:53:19;;;;;;;83.30;33.17;;;9.50;46.10;;;;;;5004560;28;20475;-60
2022/03/16 04:55:45;;;;;;;192.33;40.27;;;9.50;46.20;;;;;;5002620;28;20471;-60
2022/03/16 04:58:14;;;;;;;122.83;36.23;;;9.50;46.60;;;;;;5001571;28;20484;-59
2022/03/16 05:00:41;;;;;;;97.80;35.30;;;9.50;46.70;;;;;;5002486;28;21044;-60
2022/03/16 05:03:07;;;;;;;126.90;37.30;;;9.50;46.70;;;;;;5004079;28;20488;-58
2022/03/16 05:05:34;;;;;;;96.17;36.37;;;9.50;46.60;;;;;;5004590;28;20464;-59
2022/03/16 05:08:01;;;;;;;89.27;33.83;;;9.50;46.50;;;;;;5003356;28;20929;-60
2022/03/16 05:10:28;;;;;;;78.47;31.30;;;9.50;46.10;;;;;;5001966;28;20472;-59
2022/03/16 05:12:54;;;;;;;78.20;31.20;;;9.50;46.10;;;;;;5007148;28;20498;-60
2022/03/16 05:15:22;;;;;;;75.80;31.30;;;9.60;45.90;;;;;;5001239;28;20471;-59
2022/03/16 05:17:49;;;;;;;77.07;31.90;;;9.60;45.70;;;;;;4999455;28;20487;-60
2022/03/16 05:20:17;;;;;;;71.67;31.07;;;9.60;46.20;;;;;;5006544;28;21163;-63
2022/03/16 05:22:48;;;;;;;75.27;32.60;;;9.60;46.00;;;;;;5000375;28;20471;-62
2022/03/16 05:25:17;;;;;;;74.50;32.00;;;9.60;46.00;;;;;;5003396;28;20491;-62
2022/03/16 05:27:44;;;;;;;79.23;33.23;;;9.60;46.20;;;;;;5001886;28;20481;-62
2022/03/16 05:30:13;;;;;;;70.23;28.30;;;9.60;46.00;;;;;;5003706;28;20464;-63
2022/03/16 05:32:42;;;;;;;60.90;27.30;;;9.60;45.90;;;;;;5004955;28;20471;-63
2022/03/16 05:35:11;;;;;;;75.73;29.97;;;9.60;46.40;;;;;;5006403;28;20498;-62
2022/03/16 05:37:38;;;;;;;66.30;27.57;;;9.70;47.10;;;;;;5005058;28;20488;-63
2022/03/16 05:40:06;;;;;;;72.70;30.17;;;9.60;46.40;;;;;;5002836;28;20475;-64
2022/03/16 05:42:33;;;;;;;62.77;28.60;;;9.60;46.70;;;;;;5003997;28;20464;-63
2022/03/16 05:45:00;;;;;;;70.67;27.03;;;9.60;46.60;;;;;;5006372;28;20468;-63
2022/03/16 05:47:27;;;;;;;65.00;27.07;;;9.60;46.40;;;;;;5005781;28;20488;-62
2022/03/16 05:49:55;;;;;;;60.67;27.17;;;9.60;46.10;;;;;;5004072;28;20467;-62
2022/03/16 05:52:23;;;;;;;67.80;28.37;;;9.60;46.10;;;;;;5003100;28;20467;-62
2022/03/16 05:54:51;;;;;;;68.97;31.00;;;9.60;45.90;;;;;;5003979;28;20468;-62
2022/03/16 05:57:18;;;;;;;67.50;28.57;;;9.60;45.60;;;;;;5002526;28;20487;-63
2022/03/16 05:59:45;;;;;;;69.40;29.30;;;9.50;45.60;;;;;;5003490;28;20484;-63
2022/03/16 06:02:13;;;;;;;69.63;29.73;;;9.50;45.30;;;;;;5005361;28;20491;-62
2022/03/16 06:04:41;;;;;;;68.97;30.60;;;9.40;45.30;;;;;;5004428;28;20877;-63
2022/03/16 06:07:09;;;;;;;69.77;31.73;;;9.30;45.20;;;;;;5004621;28;20563;-63
2022/03/16 06:09:36;;;;;;;73.07;32.17;;;9.40;45.10;;;;;;5002815;28;20480;-63
2022/03/16 06:12:04;;;;;;;74.27;30.30;;;9.30;45.00;;;;;;5003111;28;21032;-63
2022/03/16 06:14:31;;;;;;;73.73;32.47;;;9.30;45.00;;;;;;4997589;28;20469;-64
2022/03/16 06:16:58;;;;;;;71.17;31.73;;;9.20;44.80;;;;;;5003399;28;20483;-64
2022/03/16 06:19:25;;;;;;;79.43;36.30;;;9.20;44.80;;;;;;5001180;28;20479;-61
2022/03/16 06:21:52;;;;;;;72.70;32.80;;;9.20;44.60;;;;;;5002423;28;20471;-65
2022/03/16 06:24:20;;;;;;;78.97;33.30;;;9.10;44.50;;;;;;5003431;28;20462;-63
2022/03/16 06:26:47;;;;;;;74.33;32.27;;;9.10;44.30;;;;;;5004943;28;20864;-63
2022/03/16 06:29:13;;;;;;;73.30;34.10;;;9.10;44.20;;;;;;5002541;28;20460;-63
2022/03/16 06:31:40;;;;;;;75.70;35.13;;;9.00;43.90;;;;;;5000715;28;20479;-62
2022/03/16 06:34:07;;;;;;;76.10;31.97;;;9.00;43.70;;;;;;4993731;28;20467;-63
2022/03/16 06:36:34;;;;;;;78.00;31.20;;;8.90;43.40;;;;;;5008084;28;20464;-62
2022/03/16 06:39:00;;;;;;;69.80;30.07;;;8.90;43.40;;;;;;5008434;28;21055;-63
2022/03/16 06:41:29;;;;;;;74.10;31.97;;;8.80;43.10;;;;;;5005073;28;20452;-64
2022/03/16 06:43:55;;;;;;;70.97;31.93;;;8.80;43.40;;;;;;5006144;28;20478;-62
2022/03/16 06:46:22;;;;;;;73.50;32.70;;;8.80;43.30;;;;;;5005749;28;20590;-64
2022/03/16 06:48:49;;;;;;;71.07;31.10;;;8.70;43.20;;;;;;5003475;28;20479;-63
2022/03/16 06:51:16;;;;;;;68.87;31.63;;;8.70;43.30;;;;;;5005689;28;20459;-63
2022/03/16 06:53:42;;;;;;;66.53;29.83;;;8.60;43.20;;;;;;5006848;28;20460;-63
2022/03/16 06:56:09;;;;;;;74.60;32.30;;;8.60;43.40;;;;;;5007739;28;20471;-62
2022/03/16 06:58:37;;;;;;;74.57;33.33;;;8.50;43.50;;;;;;5001211;28;20491;-63
2022/03/16 07:01:04;;;;;;;70.97;31.63;;;8.50;43.50;;;;;;5000865;28;20484;-63
2022/03/16 07:03:31;;;;;;;73.27;31.30;;;8.50;43.50;;;;;;5006824;28;20984;-63
2022/03/16 07:05:57;;;;;;;66.73;29.37;;;8.50;43.70;;;;;;4995167;28;20466;-63
2022/03/16 07:08:25;;;;;;;69.53;32.17;;;8.50;43.50;;;;;;5006379;28;20490;-63
2022/03/16 07:10:52;;;;;;;75.80;30.70;;;8.60;43.50;;;;;;5003665;28;21223;-63
2022/03/16 07:13:18;;;;;;;75.10;32.70;;;8.50;43.50;;;;;;5003653;28;20464;-66
2022/03/16 07:15:46;;;;;;;80.00;31.30;;;8.40;43.60;;;;;;5005877;28;20499;-62
2022/03/16 07:18:13;;;;;;;72.80;30.30;;;8.40;44.40;;;;;;5008339;28;20491;-63
2022/03/16 07:20:40;;;;;;;69.87;33.03;;;8.30;44.00;;;;;;4999970;28;20471;-63
2022/03/16 07:23:09;;;;;;;76.90;34.70;;;8.30;44.20;;;;;;4991368;28;20469;-62
2022/03/16 07:25:37;;;;;;;64.83;28.50;;;8.30;44.40;;;;;;5004825;28;20467;-62
2022/03/16 07:28:04;;;;;;;71.57;29.57;;;8.20;44.20;;;;;;5003359;28;20499;-64
2022/03/16 07:30:32;;;;;;;67.33;28.33;;;8.30;44.40;;;;;;5000373;28;20728;-62
2022/03/16 07:33:01;;;;;;;68.30;28.03;;;8.20;44.10;;;;;;5004645;28;20534;-62
2022/03/16 07:35:28;;;;;;;67.60;30.40;;;8.20;44.00;;;;;;5005799;28;21171;-65
2022/03/16 07:37:56;;;;;;;72.47;30.47;;;8.20;43.80;;;;;;5005298;28;20495;-62
2022/03/16 07:40:23;;;;;;;72.97;31.00;;;8.10;43.90;;;;;;5004638;28;20997;-62
2022/03/16 07:42:52;;;;;;;71.73;28.80;;;8.10;44.20;;;;;;5006260;28;20482;-63
2022/03/16 07:45:20;;;;;;;73.53;30.23;;;8.10;44.20;;;;;;5004933;28;20465;-61
2022/03/16 07:47:47;;;;;;;72.73;31.20;;;8.10;44.30;;;;;;5007862;28;20495;-64
2022/03/16 07:50:15;;;;;;;80.30;31.90;;;8.00;44.20;;;;;;5006794;28;20543;-65
2022/03/16 07:52:43;;;;;;;71.43;29.57;;;8.00;44.30;;;;;;5006802;28;20456;-64
2022/03/16 07:55:11;;;;;;;72.03;29.40;;;8.00;44.50;;;;;;5002702;28;20974;-65
2022/03/16 07:57:38;;;;;;;82.93;31.30;;;7.90;44.70;;;;;;5004806;28;20479;-64
2022/03/16 08:00:07;;;;;;;72.10;28.60;;;7.90;44.90;;;;;;5005207;28;20475;-63
2022/03/16 08:02:34;;;;;;;71.03;29.30;;;7.80;45.10;;;;;;5007416;28;20476;-64
2022/03/16 08:05:01;;;;;;;77.33;30.00;;;7.80;45.10;;;;;;5005799;28;20471;-64
2022/03/16 08:07:30;;;;;;;71.97;29.10;;;7.70;45.50;;;;;;5006688;28;21025;-65
2022/03/16 08:09:57;;;;;;;71.43;29.17;;;7.70;45.20;;;;;;5007671;28;20464;-65
2022/03/16 08:12:24;;;;;;;76.13;31.10;;;7.70;45.10;;;;;;5005307;28;20469;-64
2022/03/16 08:14:51;;;;;;;68.10;27.80;;;7.80;45.30;;;;;;5006407;28;20985;-64
2022/03/16 08:17:18;;;;;;;70.87;29.27;;;7.80;45.00;;;;;;5005311;28;20480;-64
2022/03/16 08:19:45;;;;;;;70.90;29.50;;;7.80;45.10;;;;;;5005197;28;20480;-62
2022/03/16 08:22:12;;;;;;;70.37;29.00;;;7.90;44.50;;;;;;5006389;28;20467;-63
2022/03/16 08:24:40;;;;;;;68.80;28.43;;;7.90;44.00;;;;;;5004101;28;20464;-65
2022/03/16 08:27:07;;;;;;;69.07;28.17;;;7.90;43.90;;;;;;5004376;28;20490;-64
2022/03/16 08:29:34;;;;;;;69.87;27.50;;;7.90;44.20;;;;;;5004652;28;21144;-65
2022/03/16 08:32:03;;;;;;;68.43;27.20;;;7.90;44.00;;;;;;5006213;28;20479;-64
2022/03/16 08:34:30;;;;;;;68.60;28.83;;;8.00;43.80;;;;;;5005303;28;20471;-62
2022/03/16 08:36:57;;;;;;;67.53;29.37;;;8.00;43.40;;;;;;5006143;28;20480;-64
2022/03/16 08:39:24;;;;;;;67.00;27.57;;;8.10;42.90;;;;;;5006066;28;20488;-64
2022/03/16 08:41:52;;;;;;;72.30;29.70;;;8.10;42.80;;;;;;5006415;28;20468;-62
2022/03/16 08:44:18;;;;;;;69.73;29.60;;;8.10;42.60;;;;;;5003712;28;20966;-64
2022/03/16 08:46:45;;;;;;;69.50;28.10;;;8.10;42.60;;;;;;5006310;28;20474;-62
2022/03/16 08:49:12;;;;;;;65.70;26.53;;;8.10;42.60;;;;;;5003994;28;20562;-64
2022/03/16 08:51:39;;;;;;;63.97;26.70;;;8.10;42.60;;;;;;5005699;28;20460;-62
2022/03/16 08:54:06;;;;;;;72.17;29.33;;;8.10;42.70;;;;;;5005772;28;20557;-63
2022/03/16 08:56:32;;;;;;;74.23;29.70;;;8.10;42.70;;;;;;5004622;28;20997;-62
2022/03/16 08:59:01;;;;;;;67.83;27.23;;;8.10;42.30;;;;;;5005758;28;20476;-62
2022/03/16 09:01:27;;;;;;;70.43;27.23;;;8.20;42.40;;;;;;5005159;28;20516;-64
2022/03/16 09:03:54;;;;;;;63.40;24.90;;;8.20;42.00;;;;;;5006895;28;20468;-62
2022/03/16 09:06:21;;;;;;;66.47;27.93;;;8.30;41.90;;;;;;5005173;28;20471;-65
2022/03/16 09:08:48;;;;;;;62.87;25.03;;;8.30;41.80;;;;;;4999765;28;21029;-62
2022/03/16 09:11:15;;;;;;;66.17;27.10;;;8.40;41.70;;;;;;4999719;28;20468;-64
2022/03/16 09:13:42;;;;;;;66.27;27.53;;;8.40;41.60;;;;;;5003821;28;20474;-63
2022/03/16 09:16:10;;;;;;;64.30;27.87;;;8.50;41.30;;;;;;5003465;28;20466;-64
2022/03/16 09:18:37;;;;;;;67.03;28.50;;;8.40;40.80;;;;;;5004146;28;20491;-64
2022/03/16 09:21:04;;;;;;;65.53;26.40;;;8.30;41.10;;;;;;5003173;28;20464;-63
2022/03/16 09:23:31;;;;;;;66.13;26.20;;;8.30;41.60;;;;;;5001171;28;20460;-62
2022/03/16 09:25:58;;;;;;;64.07;26.03;;;8.40;41.80;;;;;;5000713;28;21236;-62
2022/03/16 09:28:25;;;;;;;67.87;27.40;;;8.40;41.50;;;;;;5000781;28;20499;-64
2022/03/16 09:30:52;;;;;;;67.83;27.80;;;8.40;41.60;;;;;;5001120;28;20557;-62
2022/03/16 09:33:21;;;;;;;67.67;28.50;;;8.40;41.70;;;;;;5000143;28;20853;-63
2022/03/16 09:35:48;;;;;;;66.70;27.23;;;8.40;41.50;;;;;;4999710;28;20543;-65
2022/03/16 09:38:15;;;;;;;65.93;28.20;;;8.40;41.70;;;;;;5000979;28;20962;-65
2022/03/16 09:40:42;;;;;;;69.63;27.40;;;8.40;41.60;;;;;;5002417;28;20490;-62
2022/03/16 09:43:11;;;;;;;66.07;27.90;;;8.40;41.70;;;;;;4997419;28;20523;-65
2022/03/16 09:45:55;;;;;;;73.50;29.97;;;8.40;41.60;;;;;;5003172;28;20464;-64
2022/03/16 09:48:24;;;;;;;64.00;26.23;;;8.40;41.90;;;;;;5005211;28;20514;-65
2022/03/16 09:50:52;;;;;;;67.70;29.13;;;8.50;41.80;;;;;;5000472;28;20483;-63
2022/03/16 09:53:19;;;;;;;61.73;27.33;;;8.60;41.50;;;;;;5000541;28;20468;-62
2022/03/16 09:55:46;;;;;;;70.50;27.50;;;8.60;41.30;;;;;;5002983;28;20998;-65
2022/03/16 09:58:13;;;;;;;67.20;30.17;;;8.70;41.30;;;;;;4999186;28;20484;-62
2022/03/16 10:00:40;;;;;;;67.80;26.53;;;8.70;41.00;;;;;;4997386;28;20479;-63
2022/03/16 10:03:07;;;;;;;62.97;26.67;;;8.80;40.90;;;;;;5003347;28;20471;-64
2022/03/16 10:05:36;;;;;;;64.33;28.20;;;8.90;40.50;;;;;;5001427;28;21013;-65
2022/03/16 10:08:05;;;;;;;65.63;27.07;;;9.00;40.50;;;;;;5004021;28;20487;-65
2022/03/16 10:13:21;;;;;;;61.33;26.70;;;9.20;40.10;;;;;;5007745;28;20499;-65
2022/03/16 10:15:48;;;;;;;62.27;25.93;;;9.30;39.80;;;;;;5007343;28;20462;-64
2022/03/16 10:18:17;;;;;;;60.87;26.80;;;9.40;39.30;;;;;;5008369;28;20881;-63
2022/03/16 10:20:45;;;;;;;61.30;27.90;;;9.50;39.20;;;;;;5007282;28;20487;-64
2022/03/16 10:23:14;;;;;;;59.97;25.40;;;9.60;39.10;;;;;;5003882;28;20841;-65
2022/03/16 10:25:42;;;;;;;61.20;25.43;;;9.60;38.40;;;;;;5006449;28;20463;-65
2022/03/16 10:28:12;;;;;;;60.70;26.20;;;9.70;38.40;;;;;;5003557;28;20491;-62
2022/03/16 10:30:52;;;;;;;61.50;25.80;;;9.80;37.40;;;;;;5005153;28;20460;-61
2022/03/16 10:33:20;;;;;;;65.53;26.90;;;9.90;37.90;;;;;;5005655;28;20467;-63
2022/03/16 10:36:06;;;;;;;56.10;23.70;;;10.10;37.50;;;;;;5002292;28;20461;-64
2022/03/16 10:38:38;;;;;;;62.80;26.67;;;10.30;37.20;;;;;;5007074;28;20479;-64
2022/03/16 10:41:13;;;;;;;56.03;24.77;;;10.50;36.50;;;;;;5005714;28;20487;-64
2022/03/16 10:46:39;;;;;;;53.63;23.20;;;10.80;35.10;;;;;;5006848;28;20490;-62
2022/03/16 10:49:09;;;;;;;55.43;23.73;;;10.90;34.10;;;;;;5007628;28;20521;-62
2022/03/16 10:51:39;;;;;;;54.97;22.90;;;11.10;33.80;;;;;;5001584;28;20553;-62
2022/03/16 10:54:06;;;;;;;56.03;23.60;;;11.30;33.30;;;;;;5003272;28;20468;-62
2022/03/16 10:56:33;;;;;;;55.50;23.10;;;11.40;33.10;;;;;;5006260;28;20466;-64
2022/03/16 10:59:00;;;;;;;57.07;25.63;;;11.40;32.90;;;;;;5003008;28;20464;-63
2022/03/16 11:01:28;;;;;;;58.50;25.00;;;11.60;32.90;;;;;;5003670;28;20484;-62
2022/03/16 11:03:58;;;;;;;55.13;22.70;;;11.70;32.90;;;;;;5003673;28;20460;-62
2022/03/16 11:06:26;;;;;;;55.30;23.87;;;11.90;31.90;;;;;;5007362;28;20491;-62
2022/03/16 11:08:55;;;;;;;53.30;22.30;;;12.00;31.10;;;;;;5005312;28;20491;-62
2022/03/16 11:14:08;;;;;;;51.63;21.77;;;12.30;30.30;;;;;;5003499;28;20538;-61
2022/03/16 11:16:35;;;;;;;52.10;22.53;;;12.40;30.40;;;;;;5004278;28;20472;-62
2022/03/16 11:19:05;;;;;;;53.90;22.43;;;12.40;30.40;;;;;;5005390;28;20486;-62
2022/03/16 11:21:44;;;;;;;51.13;21.53;;;12.60;30.70;;;;;;5007304;28;20488;-62
2022/03/16 11:24:17;;;;;;;51.80;22.30;;;12.60;30.80;;;;;;5002863;28;20460;-62
2022/03/16 11:27:22;;;;;;;48.87;19.90;;;12.60;29.50;;;;;;5005529;28;20476;-62
2022/03/16 11:30:01;;;;;;;54.50;22.07;;;12.50;29.20;;;;;;5003619;28;20464;-62
2022/03/16 11:32:35;;;;;;;51.03;21.97;;;12.30;29.80;;;;;;5002068;28;20488;-63
2022/03/16 11:35:02;;;;;;;50.13;22.10;;;12.30;30.70;;;;;;5002925;28;20527;-63
2022/03/16 11:37:34;;;;;;;53.17;22.50;;;12.20;30.90;;;;;;5001640;28;20480;-62
2022/03/16 11:40:10;;;;;;;51.10;21.63;;;12.20;31.30;;;;;;5003821;28;20487;-62
2022/03/16 11:42:37;;;;;;;52.77;21.13;;;12.20;31.10;;;;;;4999341;28;20467;-63
2022/03/16 11:45:31;;;;;;;51.47;21.47;;;12.20;31.20;;;;;;5003691;28;20463;-62
2022/03/16 11:47:58;;;;;;;51.10;21.10;;;12.30;31.40;;;;;;5001669;28;20488;-61
2022/03/16 11:50:24;;;;;;;50.57;21.50;;;12.20;30.70;;;;;;5004353;28;20475;-63
2022/03/16 11:53:05;;;;;;;50.17;21.40;;;12.10;31.30;;;;;;5007838;28;20475;-62
2022/03/16 11:55:41;;;;;;;52.47;21.50;;;12.20;31.10;;;;;;5004570;28;20464;-65
2022/03/16 11:58:25;;;;;;;50.70;21.30;;;12.20;31.40;;;;;;5003765;28;20483;-62
2022/03/16 12:00:53;;;;;;;48.43;20.17;;;12.20;31.20;;;;;;5003370;28;20513;-62
2022/03/16 12:03:24;;;;;;;52.07;22.23;;;12.10;31.40;;;;;;5004376;28;20600;-63
2022/03/16 12:05:56;;;;;;;49.60;20.93;;;12.10;31.60;;;;;;5002975;28;20486;-62
2022/03/16 12:08:23;;;;;;;48.60;19.90;;;12.20;31.50;;;;;;5005083;28;20488;-63
2022/03/16 12:12:50;;;;;;;49.30;20.57;;;12.20;31.20;;;;;;5006312;28;20463;-62
2022/03/16 12:13:43;;;;;;;52.80;20.70;;;12.30;31.30;;;;;;4999740;28;20542;-62
2022/03/16 12:16:10;;;;;;;52.00;20.80;;;12.20;31.30;;;;;;5004724;28;20462;-62
2022/03/16 12:18:40;;;;;;;52.00;20.23;;;12.20;31.30;;;;;;5003702;28;20483;-62
2022/03/16 12:21:11;;;;;;;48.93;20.93;;;12.20;31.60;;;;;;4999040;28;21206;-62
2022/03/16 12:23:58;;;;;;;54.23;21.00;;;12.30;31.60;;;;;;5001447;28;20467;-62
2022/03/16 12:26:28;;;;;;;50.73;20.57;;;12.40;31.50;;;;;;5005416;28;20485;-63
2022/03/16 12:29:03;;;;;;;50.30;20.03;;;12.50;31.00;;;;;;5001882;28;20479;-62
2022/03/16 12:31:31;;;;;;;53.00;21.33;;;12.60;30.60;;;;;;5000312;28;20484;-62
2022/03/16 12:33:59;;;;;;;53.67;21.13;;;12.60;30.10;;;;;;5000797;28;20487;-63
2022/03/16 12:36:27;;;;;;;48.40;18.97;;;12.60;30.50;;;;;;5004667;28;20476;-62
2022/03/16 12:38:56;;;;;;;49.30;20.27;;;12.60;30.80;;;;;;5005013;28;20495;-63
2022/03/16 12:44:12;;;;;;;50.00;21.90;;;12.50;30.80;;;;;;5000603;28;21230;-62
2022/03/16 12:46:50;;;;;;;47.90;20.07;;;12.50;30.80;;;;;;5003271;28;20490;-62
2022/03/16 12:49:19;;;;;;;48.87;20.87;;;12.40;31.00;;;;;;5001390;28;20456;-62